createdAt,value
2019-04-19T00:00:56.957Z,14.59
2019-04-19T00:01:57.081Z,14.49
2019-04-19T00:02:51.964Z,14.56
2019-04-19T00:03:51.193Z,14.55
2019-04-19T00:04:52.874Z,14.49
2019-04-19T00:05:51.242Z,14.40
2019-04-19T00:07:02.402Z,14.46
2019-04-19T00:07:59.173Z,14.49
2019-04-19T00:09:09.300Z,14.53
2019-04-19T00:09:58.965Z,14.49
2019-04-19T00:10:57.035Z,14.45
2019-04-19T00:12:05.505Z,14.51
2019-04-19T00:12:56.623Z,14.45
2019-04-19T00:13:51.612Z,14.38
2019-04-19T00:14:52.707Z,14.36
2019-04-19T00:15:51.938Z,14.44
2019-04-19T00:16:53.046Z,14.27
2019-04-19T00:17:58.369Z,14.33
2019-04-19T00:19:18.415Z,14.26
2019-04-19T00:20:16.682Z,14.21
2019-04-19T00:21:13.666Z,14.22
2019-04-19T00:22:17.032Z,14.09
2019-04-19T00:23:07.485Z,14.08
2019-04-19T00:23:54.533Z,14.13
2019-04-19T00:24:52.944Z,14.15
2019-04-19T00:25:53.626Z,14.15
2019-04-19T00:26:53.212Z,14.03
2019-04-19T00:27:56.864Z,14.01
2019-04-19T00:28:57.412Z,13.97
2019-04-19T00:30:00.345Z,13.98
2019-04-19T00:31:05.347Z,14.00
2019-04-19T00:32:11.838Z,14.03
2019-04-19T00:33:09.389Z,13.93
2019-04-19T00:33:57.194Z,13.90
2019-04-19T00:34:54.700Z,13.86
2019-04-19T00:35:54.402Z,13.75
2019-04-19T00:36:55.355Z,13.72
2019-04-19T00:38:02.444Z,13.68
2019-04-19T00:39:15.083Z,13.68
2019-04-19T00:40:15.694Z,13.63
2019-04-19T00:41:14.237Z,13.57
2019-04-19T00:42:11.854Z,13.58
2019-04-19T00:43:11.546Z,13.58
2019-04-19T00:44:08.828Z,13.64
2019-04-19T00:45:16.188Z,13.63
2019-04-19T00:46:12.860Z,13.60
2019-04-19T00:47:11.987Z,13.54
2019-04-19T00:48:07.832Z,13.64
2019-04-19T00:49:10.210Z,13.51
2019-04-19T00:50:07.506Z,13.47
2019-04-19T00:51:09.774Z,13.64
2019-04-19T00:52:09.762Z,13.53
2019-04-19T00:53:11.138Z,13.55
2019-04-19T00:54:08.275Z,13.63
2019-04-19T00:55:08.149Z,13.60
2019-04-19T00:56:05.821Z,13.47
2019-04-19T00:57:04.259Z,13.55
2019-04-19T00:58:04.038Z,13.45
2019-04-19T00:59:02.599Z,13.46
2019-04-19T00:59:58.133Z,13.40
2019-04-19T01:01:06.020Z,13.45
2019-04-19T01:02:04.479Z,13.53
2019-04-19T01:02:59.485Z,13.38
2019-04-19T01:03:59.039Z,13.40
2019-04-19T01:05:05.487Z,13.36
2019-04-19T01:06:03.569Z,13.40
2019-04-19T01:07:00.975Z,13.43
2019-04-19T01:08:00.023Z,13.23
2019-04-19T01:09:13.963Z,13.17
2019-04-19T01:10:15.408Z,13.24
2019-04-19T01:11:14.009Z,13.21
2019-04-19T01:12:10.749Z,13.14
2019-04-19T01:13:10.866Z,13.17
2019-04-19T01:14:13.852Z,13.13
2019-04-19T01:15:12.613Z,13.14
2019-04-19T01:16:08.876Z,13.11
2019-04-19T01:17:11.500Z,13.08
2019-04-19T01:18:19.383Z,12.99
2019-04-19T01:19:06.772Z,13.06
2019-04-19T01:20:04.175Z,13.01
2019-04-19T01:21:00.644Z,12.81
2019-04-19T01:22:02.674Z,12.87
2019-04-19T01:23:05.650Z,12.86
2019-04-19T01:24:04.479Z,12.84
2019-04-19T01:25:03.533Z,12.93
2019-04-19T01:26:05.788Z,12.83
2019-04-19T01:27:02.418Z,12.93
2019-04-19T01:28:06.110Z,12.83
2019-04-19T01:29:06.230Z,12.87
2019-04-19T01:30:02.889Z,12.84
2019-04-19T01:31:04.030Z,12.87
2019-04-19T01:32:08.287Z,12.81
2019-04-19T01:33:04.038Z,12.76
2019-04-19T01:34:09.115Z,12.72
2019-04-19T01:35:08.110Z,12.73
2019-04-19T01:36:02.416Z,12.72
2019-04-19T01:37:09.252Z,12.72
2019-04-19T01:38:06.658Z,12.69
2019-04-19T01:39:19.298Z,12.63
2019-04-19T01:40:19.640Z,12.66
2019-04-19T01:41:18.334Z,12.68
2019-04-19T01:42:22.303Z,12.68
2019-04-19T01:43:23.900Z,12.71
2019-04-19T01:44:24.017Z,12.62
2019-04-19T01:45:17.570Z,12.61
2019-04-19T01:46:18.036Z,12.66
2019-04-19T01:47:27.166Z,12.55
2019-04-19T01:48:24.810Z,12.54
2019-04-19T01:49:15.294Z,12.54
2019-04-19T01:50:15.117Z,12.58
2019-04-19T01:51:20.124Z,12.53
2019-04-19T01:52:31.944Z,12.53
2019-04-19T01:53:25.424Z,12.59
2019-04-19T01:54:22.296Z,12.54
2019-04-19T01:55:14.893Z,12.54
2019-04-19T01:56:10.348Z,12.53
2019-04-19T01:57:07.827Z,12.46
2019-04-19T01:58:10.577Z,12.44
2019-04-19T01:59:06.776Z,12.36
2019-04-19T02:00:08.521Z,12.36
2019-04-19T02:01:12.373Z,12.29
2019-04-19T02:02:10.457Z,12.25
2019-04-19T02:03:07.945Z,12.33
2019-04-19T02:04:12.170Z,12.28
2019-04-19T02:05:11.597Z,12.28
2019-04-19T02:06:11.008Z,12.22
2019-04-19T02:07:15.883Z,12.21
2019-04-19T02:08:10.177Z,12.15
2019-04-19T02:09:06.967Z,12.10
2019-04-19T02:10:18.512Z,12.11
2019-04-19T02:11:19.010Z,12.07
2019-04-19T02:12:22.441Z,12.07
2019-04-19T02:13:18.232Z,12.08
2019-04-19T02:14:13.470Z,12.07
2019-04-19T02:15:11.841Z,12.08
2019-04-19T02:16:13.002Z,12.15
2019-04-19T02:17:11.416Z,12.05
2019-04-19T02:18:11.467Z,11.99
2019-04-19T02:19:15.206Z,12.03
2019-04-19T02:20:10.624Z,12.04
2019-04-19T02:21:08.943Z,12.05
2019-04-19T02:22:16.107Z,12.07
2019-04-19T02:23:12.533Z,12.07
2019-04-19T02:24:08.783Z,12.03
2019-04-19T02:25:15.973Z,12.04
2019-04-19T02:26:13.082Z,12.00
2019-04-19T02:27:11.842Z,11.97
2019-04-19T02:28:15.853Z,11.93
2019-04-19T02:29:14.603Z,11.95
2019-04-19T02:30:19.274Z,11.96
2019-04-19T02:31:32.366Z,11.95
2019-04-19T02:32:30.211Z,11.89
2019-04-19T02:33:45.560Z,11.95
2019-04-19T02:34:33.851Z,11.93
2019-04-19T02:35:40.504Z,11.96
2019-04-19T02:36:47.531Z,11.85
2019-04-19T02:37:31.812Z,11.80
2019-04-19T02:38:36.431Z,11.82
2019-04-19T02:43:04.057Z,11.77
2019-04-19T02:43:49.143Z,11.84
2019-04-19T02:44:45.916Z,11.79
2019-04-19T02:45:45.280Z,11.79
2019-04-19T02:46:48.178Z,11.74
2019-04-19T02:47:40.683Z,11.74
2019-04-19T02:48:49.043Z,11.84
2019-04-19T02:49:44.689Z,11.79
2019-04-19T02:51:02.431Z,11.76
2019-04-19T02:51:39.419Z,11.73
2019-04-19T02:52:39.100Z,11.69
2019-04-19T02:53:41.255Z,11.71
2019-04-19T02:54:42.216Z,11.70
2019-04-19T02:55:46.061Z,11.66
2019-04-19T02:57:39.723Z,11.56
2019-04-19T02:58:40.157Z,11.64
2019-04-19T03:00:47.374Z,11.55
2019-04-19T03:01:51.205Z,11.64
2019-04-19T03:04:09.536Z,11.59
2019-04-19T03:04:55.259Z,11.52
2019-04-19T03:05:38.385Z,11.67
2019-04-19T03:06:27.086Z,11.62
2019-04-19T03:07:15.769Z,11.64
2019-04-19T03:08:14.539Z,11.61
2019-04-19T03:09:15.493Z,11.56
2019-04-19T03:10:19.368Z,11.61
2019-04-19T03:11:32.390Z,11.62
2019-04-19T03:12:40.137Z,11.56
2019-04-19T03:13:32.826Z,11.51
2019-04-19T03:14:31.562Z,11.55
2019-04-19T03:15:40.315Z,11.55
2019-04-19T03:16:38.335Z,11.56
2019-04-19T03:17:35.119Z,11.46
2019-04-19T03:18:37.380Z,11.52
2019-04-19T03:19:24.999Z,11.52
2019-04-19T03:20:31.323Z,11.46
2019-04-19T03:21:31.898Z,11.48
2019-04-19T03:22:31.010Z,11.51
2019-04-19T03:23:26.251Z,11.46
2019-04-19T03:24:29.787Z,11.51
2019-04-19T03:25:30.434Z,11.55
2019-04-19T03:26:30.986Z,11.51
2019-04-19T03:27:23.052Z,11.56
2019-04-19T03:28:28.105Z,11.54
2019-04-19T03:29:24.553Z,11.54
2019-04-19T03:30:35.648Z,11.52
2019-04-19T03:33:06.401Z,11.51
2019-04-19T03:34:51.182Z,11.38
2019-04-19T03:35:33.036Z,11.34
2019-04-19T03:36:36.682Z,11.31
2019-04-19T03:37:38.059Z,11.31
2019-04-19T03:38:35.021Z,11.22
2019-04-19T03:39:36.820Z,11.22
2019-04-19T03:40:37.472Z,11.20
2019-04-19T03:41:46.905Z,11.18
2019-04-19T03:42:40.924Z,11.16
2019-04-19T03:43:53.177Z,11.30
2019-04-19T03:44:37.409Z,11.23
2019-04-19T03:45:36.595Z,11.23
2019-04-19T03:46:48.328Z,11.19
2019-04-19T03:47:44.513Z,11.16
2019-04-19T03:48:39.082Z,11.20
2019-04-19T03:49:34.746Z,11.18
2019-04-19T03:50:38.168Z,11.18
2019-04-19T03:51:41.453Z,11.22
2019-04-19T03:52:39.768Z,11.19
2019-04-19T03:53:45.899Z,11.03
2019-04-19T03:54:32.649Z,11.05
2019-04-19T03:55:36.070Z,11.08
2019-04-19T03:56:41.997Z,11.03
2019-04-19T03:57:31.221Z,11.05
2019-04-19T03:58:24.067Z,11.08
2019-04-19T03:59:21.029Z,11.08
2019-04-19T04:00:21.557Z,10.98
2019-04-19T04:01:21.457Z,10.97
2019-04-19T04:02:31.772Z,10.90
2019-04-19T04:03:28.011Z,10.87
2019-04-19T04:04:26.574Z,10.87
2019-04-19T04:05:23.073Z,10.93
2019-04-19T04:06:27.609Z,10.87
2019-04-19T04:07:25.525Z,11.01
2019-04-19T04:08:24.632Z,10.95
2019-04-19T04:09:25.053Z,10.91
2019-04-19T04:10:28.592Z,10.97
2019-04-19T04:11:26.292Z,10.97
2019-04-19T04:12:34.651Z,11.01
2019-04-19T04:13:34.918Z,10.98
2019-04-19T04:14:32.111Z,11.01
2019-04-19T04:15:39.412Z,11.01
2019-04-19T04:16:30.965Z,10.87
2019-04-19T04:17:24.592Z,10.94
2019-04-19T04:18:23.758Z,11.00
2019-04-19T04:19:23.605Z,10.95
2019-04-19T04:20:24.329Z,10.94
2019-04-19T04:21:31.108Z,10.91
2019-04-19T04:22:28.325Z,10.95
2019-04-19T04:23:30.593Z,10.90
2019-04-19T04:24:31.112Z,10.93
2019-04-19T04:25:28.765Z,10.87
2019-04-19T04:26:34.853Z,10.90
2019-04-19T04:27:37.834Z,10.85
2019-04-19T04:28:41.622Z,10.90
2019-04-19T04:29:31.836Z,10.87
2019-04-19T04:30:31.673Z,10.83
2019-04-19T04:31:39.687Z,10.82
2019-04-19T04:32:40.528Z,10.78
2019-04-19T04:33:36.254Z,10.78
2019-04-19T04:34:38.794Z,10.75
2019-04-19T04:35:44.749Z,10.79
2019-04-19T04:36:46.474Z,10.75
2019-04-19T04:37:40.653Z,10.75
2019-04-19T04:38:34.012Z,10.68
2019-04-19T04:39:26.189Z,10.75
2019-04-19T04:40:27.426Z,10.76
2019-04-19T04:41:29.358Z,10.70
2019-04-19T04:42:33.767Z,10.67
2019-04-19T04:43:39.142Z,10.75
2019-04-19T04:44:53.619Z,10.68
2019-04-19T04:45:56.787Z,10.75
2019-04-19T04:46:53.023Z,10.73
2019-04-19T04:47:45.974Z,10.70
2019-04-19T04:48:43.527Z,10.70
2019-04-19T04:49:53.510Z,10.73
2019-04-19T04:50:51.177Z,10.64
2019-04-19T04:51:45.804Z,10.67
2019-04-19T04:52:32.553Z,10.75
2019-04-19T04:53:27.966Z,10.64
2019-04-19T04:54:29.211Z,10.65
2019-04-19T04:55:28.482Z,10.72
2019-04-19T04:56:37.847Z,10.80
2019-04-19T04:57:39.953Z,10.73
2019-04-19T04:58:33.642Z,10.64
2019-04-19T04:59:30.078Z,10.68
2019-04-19T05:00:38.085Z,10.76
2019-04-19T05:01:40.629Z,10.79
2019-04-19T05:02:46.054Z,10.79
2019-04-19T05:03:51.087Z,10.68
2019-04-19T05:04:41.784Z,10.83
2019-04-19T05:05:46.110Z,10.75
2019-04-19T05:06:54.692Z,10.78
2019-04-19T05:07:52.930Z,10.86
2019-04-19T05:09:49.875Z,10.86
2019-04-19T05:10:43.610Z,10.85
2019-04-19T05:11:51.027Z,10.80
2019-04-19T05:13:07.845Z,10.82
2019-04-19T05:13:50.051Z,10.90
2019-04-19T05:14:45.289Z,10.90
2019-04-19T05:15:48.271Z,10.90
2019-04-19T05:18:01.506Z,10.82
2019-04-19T05:18:52.650Z,10.80
2019-04-19T05:19:50.022Z,10.82
2019-04-19T05:20:46.186Z,10.76
2019-04-19T05:21:50.437Z,10.80
2019-04-19T05:22:49.901Z,10.78
2019-04-19T05:23:52.692Z,10.70
2019-04-19T05:24:57.726Z,10.79
2019-04-19T05:25:50.993Z,10.73
2019-04-19T05:27:03.792Z,10.58
2019-04-19T05:27:52.287Z,10.57
2019-04-19T05:28:47.518Z,10.41
2019-04-19T05:29:38.987Z,10.46
2019-04-19T05:30:41.169Z,10.34
2019-04-19T05:31:41.515Z,10.31
2019-04-19T05:32:35.817Z,10.17
2019-04-19T05:33:47.944Z,10.10
2019-04-19T05:34:51.498Z,10.05
2019-04-19T05:35:55.008Z,10.09
2019-04-19T05:36:50.169Z,10.03
2019-04-19T05:37:54.142Z,10.10
2019-04-19T05:39:10.914Z,10.08
2019-04-19T05:39:55.276Z,10.06
2019-04-19T05:40:47.434Z,9.88
2019-04-19T05:41:50.007Z,10.05
2019-04-19T05:42:54.195Z,10.03
2019-04-19T05:44:09.567Z,10.01
2019-04-19T05:45:09.727Z,9.99
2019-04-19T05:45:58.585Z,9.99
2019-04-19T05:46:56.904Z,10.02
2019-04-19T05:47:46.755Z,9.98
2019-04-19T05:48:44.797Z,9.94
2019-04-19T05:49:52.392Z,9.94
2019-04-19T05:50:57.588Z,9.93
2019-04-19T05:51:51.244Z,9.93
2019-04-19T05:52:52.281Z,10.05
2019-04-19T05:53:44.180Z,10.12
2019-04-19T05:54:36.565Z,10.17
2019-04-19T05:55:36.935Z,10.14
2019-04-19T05:56:37.059Z,10.18
2019-04-19T05:57:54.106Z,10.24
2019-04-19T05:58:51.397Z,10.12
2019-04-19T05:59:48.295Z,10.10
2019-04-19T06:00:51.668Z,10.09
2019-04-19T06:01:56.568Z,9.94
2019-04-19T06:02:50.264Z,10.06
2019-04-19T06:03:50.411Z,10.06
2019-04-19T06:05:09.044Z,10.06
2019-04-19T06:06:05.798Z,10.05
2019-04-19T06:06:57.896Z,10.10
2019-04-19T06:07:48.995Z,10.18
2019-04-19T06:08:39.667Z,10.16
2019-04-19T06:09:38.966Z,10.24
2019-04-19T06:10:47.923Z,10.26
2019-04-19T06:11:41.655Z,10.28
2019-04-19T06:12:40.488Z,10.34
2019-04-19T06:13:45.018Z,10.31
2019-04-19T06:15:03.460Z,10.35
2019-04-19T06:16:02.264Z,10.31
2019-04-19T06:16:54.021Z,10.39
2019-04-19T06:17:56.341Z,10.46
2019-04-19T06:18:49.898Z,10.45
2019-04-19T06:19:50.508Z,10.42
2019-04-19T06:21:04.649Z,10.43
2019-04-19T06:21:53.488Z,10.52
2019-04-19T06:22:58.106Z,10.54
2019-04-19T06:23:58.193Z,10.57
2019-04-19T06:24:56.879Z,10.60
2019-04-19T06:26:21.675Z,10.57
2019-04-19T06:27:07.255Z,10.61
2019-04-19T06:30:08.172Z,10.85
2019-04-19T06:30:56.217Z,10.98
2019-04-19T06:32:04.750Z,11.05
2019-04-19T06:33:02.914Z,11.12
2019-04-19T06:34:01.566Z,11.19
2019-04-19T06:34:53.922Z,11.23
2019-04-19T06:35:50.398Z,11.31
2019-04-19T06:36:43.128Z,11.43
2019-04-19T06:37:41.994Z,11.48
2019-04-19T06:38:42.244Z,11.46
2019-04-19T06:39:41.982Z,11.51
2019-04-19T06:40:51.901Z,11.80
2019-04-19T06:41:51.566Z,11.79
2019-04-19T06:42:50.987Z,11.88
2019-04-19T06:43:53.627Z,12.07
2019-04-19T06:45:05.429Z,12.05
2019-04-19T06:45:59.521Z,12.11
2019-04-19T06:46:57.383Z,12.26
2019-04-19T06:47:49.925Z,12.30
2019-04-19T06:48:52.767Z,12.35
2019-04-19T06:49:43.677Z,12.48
2019-04-19T06:50:46.319Z,12.47
2019-04-19T06:51:51.721Z,12.55
2019-04-19T06:52:44.795Z,12.53
2019-04-19T06:53:51.750Z,12.61
2019-04-19T06:54:46.357Z,12.66
2019-04-19T06:55:48.496Z,12.77
2019-04-19T06:56:54.597Z,12.80
2019-04-19T06:57:53.104Z,12.90
2019-04-19T06:58:56.414Z,13.02
2019-04-19T07:00:00.379Z,13.06
2019-04-19T07:00:57.171Z,13.02
2019-04-19T07:01:49.703Z,13.05
2019-04-19T07:02:45.560Z,13.16
2019-04-19T07:03:45.213Z,13.20
2019-04-19T07:04:54.291Z,13.30
2019-04-19T07:06:03.837Z,13.36
2019-04-19T07:07:07.937Z,13.46
2019-04-19T07:08:09.104Z,13.47
2019-04-19T07:09:12.367Z,13.53
2019-04-19T07:10:12.514Z,13.51
2019-04-19T07:11:23.781Z,13.67
2019-04-19T07:12:06.742Z,13.67
2019-04-19T07:13:04.439Z,13.68
2019-04-19T07:13:56.545Z,13.78
2019-04-19T07:15:14.439Z,13.82
2019-04-19T07:16:13.150Z,13.94
2019-04-19T07:17:07.222Z,14.01
2019-04-19T07:17:59.818Z,14.01
2019-04-19T07:19:08.077Z,14.03
2019-04-19T07:20:06.341Z,14.13
2019-04-19T07:21:06.113Z,14.21
2019-04-19T07:22:05.142Z,14.45
2019-04-19T07:23:05.555Z,14.48
2019-04-19T07:24:09.935Z,14.67
2019-04-19T07:25:12.083Z,14.86
2019-04-19T07:26:10.319Z,15.04
2019-04-19T07:27:05.838Z,15.20
2019-04-19T07:27:59.449Z,15.35
2019-04-19T07:28:49.404Z,15.48
2019-04-19T07:29:50.140Z,15.58
2019-04-19T07:30:54.506Z,15.73
2019-04-19T07:31:49.170Z,15.83
2019-04-19T07:32:57.711Z,16.00
2019-04-19T07:34:00.353Z,16.18
2019-04-19T07:35:02.269Z,16.24
2019-04-19T07:36:23.626Z,16.17
2019-04-19T07:37:11.923Z,16.33
2019-04-19T07:38:17.254Z,16.34
2019-04-19T07:39:11.672Z,16.40
2019-04-19T07:40:11.465Z,16.47
2019-04-19T07:41:09.998Z,16.49
2019-04-19T07:42:12.146Z,16.57
2019-04-19T07:43:06.161Z,16.69
2019-04-19T07:44:02.388Z,16.69
2019-04-19T07:44:57.749Z,16.80
2019-04-19T07:46:09.458Z,16.76
2019-04-19T07:47:06.631Z,16.87
2019-04-19T07:47:58.549Z,17.06
2019-04-19T07:48:51.417Z,17.02
2019-04-19T07:50:03.960Z,17.10
2019-04-19T07:50:58.931Z,17.17
2019-04-19T07:52:01.883Z,17.24
2019-04-19T07:52:58.254Z,17.34
2019-04-19T07:53:54.621Z,17.31
2019-04-19T07:54:57.503Z,17.32
2019-04-19T07:56:07.606Z,17.37
2019-04-19T07:57:19.905Z,17.37
2019-04-19T07:58:30.109Z,17.39
2019-04-19T07:59:18.353Z,17.35
2019-04-19T08:00:23.645Z,17.43
2019-04-19T08:01:24.700Z,17.56
2019-04-19T08:03:32.853Z,17.56
2019-04-19T08:04:38.086Z,17.56
2019-04-19T08:06:22.914Z,17.66
2019-04-19T08:09:18.821Z,17.75
2019-04-19T08:10:24.737Z,17.88
2019-04-19T08:11:29.296Z,17.90
2019-04-19T08:12:18.479Z,17.87
2019-04-19T08:13:31.940Z,17.84
2019-04-19T08:14:22.812Z,17.99
2019-04-19T08:15:36.630Z,17.97
2019-04-19T08:18:40.984Z,18.05
2019-04-19T08:28:08.557Z,18.52
2019-04-19T08:29:12.098Z,18.52
2019-04-19T08:30:03.126Z,18.48
2019-04-19T08:31:02.215Z,18.57
2019-04-19T08:31:57.989Z,18.60
2019-04-19T08:32:57.556Z,18.68
2019-04-19T08:33:57.901Z,18.63
2019-04-19T08:35:02.841Z,18.70
2019-04-19T08:36:00.883Z,18.74
2019-04-19T08:37:01.934Z,18.81
2019-04-19T08:38:04.887Z,18.75
2019-04-19T08:39:17.966Z,18.76
2019-04-19T08:40:18.206Z,18.81
2019-04-19T08:41:11.866Z,18.86
2019-04-19T08:42:16.206Z,18.88
2019-04-19T08:43:16.038Z,18.97
2019-04-19T08:44:14.217Z,18.91
2019-04-19T08:45:04.949Z,18.98
2019-04-19T08:45:58.990Z,18.96
2019-04-19T08:46:59.991Z,18.97
2019-04-19T08:48:09.009Z,19.04
2019-04-19T08:49:02.899Z,19.16
2019-04-19T08:50:05.001Z,19.22
2019-04-19T08:51:00.112Z,19.19
2019-04-19T08:52:06.609Z,19.19
2019-04-19T08:53:19.731Z,19.22
2019-04-19T08:54:25.783Z,19.26
2019-04-19T08:55:19.292Z,19.35
2019-04-19T08:56:13.250Z,19.41
2019-04-19T08:57:07.740Z,19.38
2019-04-19T08:58:07.130Z,19.41
2019-04-19T08:59:29.161Z,19.35
2019-04-19T09:00:26.988Z,19.42
2019-04-19T09:01:27.321Z,19.35
2019-04-19T09:02:21.099Z,19.44
2019-04-19T09:03:13.909Z,19.39
2019-04-19T09:04:20.573Z,19.45
2019-04-19T09:05:19.558Z,19.56
2019-04-19T09:07:43.425Z,19.47
2019-04-19T09:08:24.005Z,19.67
2019-04-19T09:09:28.198Z,19.67
2019-04-19T09:10:27.278Z,19.72
2019-04-19T09:11:22.485Z,19.70
2019-04-19T09:12:21.585Z,19.79
2019-04-19T09:14:27.374Z,19.86
2019-04-19T09:15:20.557Z,19.86
2019-04-19T09:16:21.014Z,19.89
2019-04-19T09:17:23.418Z,19.86
2019-04-19T09:19:37.507Z,19.93
2019-04-19T09:20:25.382Z,19.90
2019-04-19T09:21:18.558Z,20.02
2019-04-19T09:22:22.848Z,20.00
2019-04-19T09:23:20.291Z,20.02
2019-04-19T09:24:12.030Z,20.07
2019-04-19T09:25:19.069Z,20.11
2019-04-19T09:26:25.122Z,20.09
2019-04-19T09:27:29.159Z,20.15
2019-04-19T09:28:40.845Z,20.19
2019-04-19T09:29:32.384Z,20.07
2019-04-19T09:30:27.457Z,20.15
2019-04-19T09:31:25.561Z,20.17
2019-04-19T09:32:13.020Z,20.27
2019-04-19T09:33:09.984Z,20.32
2019-04-19T09:34:10.421Z,20.33
2019-04-19T09:35:09.571Z,20.44
2019-04-19T09:36:10.208Z,20.39
2019-04-19T09:37:17.116Z,20.41
2019-04-19T09:38:17.049Z,20.58
2019-04-19T09:39:23.386Z,20.48
2019-04-19T09:40:12.147Z,20.49
2019-04-19T09:41:17.336Z,20.56
2019-04-19T09:42:18.078Z,20.63
2019-04-19T09:43:21.444Z,20.60
2019-04-19T09:44:17.376Z,20.65
2019-04-19T09:45:07.547Z,20.63
2019-04-19T09:46:08.194Z,20.70
2019-04-19T09:47:08.743Z,20.71
2019-04-19T09:48:13.891Z,20.75
2019-04-19T09:49:19.003Z,20.75
2019-04-19T09:50:26.362Z,20.86
2019-04-19T09:52:33.114Z,20.92
2019-04-19T09:53:38.162Z,21.01
2019-04-19T09:54:37.040Z,20.95
2019-04-19T09:55:34.368Z,20.98
2019-04-19T09:56:27.548Z,21.08
2019-04-19T09:57:29.661Z,21.13
2019-04-19T09:58:27.142Z,21.20
2019-04-19T09:59:17.706Z,21.16
2019-04-19T10:00:15.643Z,21.23
2019-04-19T10:01:10.473Z,21.28
2019-04-19T10:02:11.425Z,21.22
2019-04-19T10:03:19.461Z,21.22
2019-04-19T10:04:10.852Z,21.40
2019-04-19T10:05:09.763Z,21.44
2019-04-19T10:06:10.926Z,21.38
2019-04-19T10:07:11.116Z,21.48
2019-04-19T10:08:11.459Z,21.44
2019-04-19T10:09:15.334Z,21.51
2019-04-19T10:10:13.022Z,21.62
2019-04-19T10:11:10.746Z,21.60
2019-04-19T10:12:11.260Z,21.69
2019-04-19T10:13:11.874Z,21.73
2019-04-19T10:14:13.235Z,21.75
2019-04-19T10:15:11.820Z,21.81
2019-04-19T10:16:12.379Z,21.85
2019-04-19T10:17:13.549Z,21.84
2019-04-19T10:18:12.495Z,21.91
2019-04-19T10:19:13.121Z,21.85
2019-04-19T10:20:12.875Z,21.98
2019-04-19T10:21:20.314Z,22.06
2019-04-19T10:22:12.367Z,22.00
2019-04-19T10:23:13.299Z,22.01
2019-04-19T10:24:16.281Z,21.98
2019-04-19T10:25:12.777Z,22.06
2019-04-19T10:26:14.180Z,22.04
2019-04-19T10:27:12.893Z,22.04
2019-04-19T10:28:13.927Z,22.01
2019-04-19T10:29:19.738Z,22.07
2019-04-19T10:30:15.120Z,22.12
2019-04-19T10:31:13.464Z,22.18
2019-04-19T10:32:14.752Z,22.15
2019-04-19T10:33:14.211Z,22.16
2019-04-19T10:34:14.383Z,22.25
2019-04-19T10:35:13.833Z,22.23
2019-04-19T10:36:14.844Z,22.48
2019-04-19T10:37:15.505Z,22.43
2019-04-19T10:38:14.258Z,22.53
2019-04-19T10:39:14.396Z,22.49
2019-04-19T10:40:15.613Z,22.58
2019-04-19T10:41:15.747Z,22.59
2019-04-19T10:42:17.775Z,22.77
2019-04-19T10:43:15.001Z,22.77
2019-04-19T10:44:18.634Z,22.93
2019-04-19T10:45:16.267Z,22.98
2019-04-19T10:46:15.374Z,23.18
2019-04-19T10:47:16.601Z,23.25
2019-04-19T10:48:15.900Z,23.48
2019-04-19T10:49:22.902Z,23.66
2019-04-19T10:50:27.180Z,23.78
2019-04-19T10:51:17.468Z,23.56
2019-04-19T10:52:17.316Z,23.69
2019-04-19T10:53:19.407Z,23.91
2019-04-19T10:54:16.505Z,24.08
2019-04-19T10:55:16.631Z,24.52
2019-04-19T10:56:16.775Z,24.70
2019-04-19T10:57:19.475Z,24.99
2019-04-19T10:58:17.079Z,24.97
2019-04-19T10:59:18.155Z,25.19
2019-04-19T11:00:17.588Z,25.28
2019-04-19T11:01:17.471Z,25.37
2019-04-19T11:02:17.906Z,25.31
2019-04-19T11:03:18.983Z,25.31
2019-04-19T11:04:17.892Z,25.34
2019-04-19T11:05:18.759Z,25.28
2019-04-19T11:06:18.779Z,25.45
2019-04-19T11:07:18.351Z,25.63
2019-04-19T11:08:18.484Z,25.73
2019-04-19T11:09:18.730Z,25.82
2019-04-19T11:10:19.829Z,26.24
2019-04-19T11:11:19.379Z,26.24
2019-04-19T11:12:19.854Z,26.43
2019-04-19T11:13:24.472Z,26.71
2019-04-19T11:14:19.388Z,26.93
2019-04-19T11:15:20.252Z,27.16
2019-04-19T11:16:19.679Z,27.19
2019-04-19T11:17:19.987Z,27.47
2019-04-19T11:18:19.984Z,27.69
2019-04-19T11:19:32.881Z,27.64
2019-04-19T11:20:31.936Z,27.61
2019-04-19T11:21:20.427Z,27.49
2019-04-19T11:22:21.552Z,27.52
2019-04-19T11:23:21.784Z,27.47
2019-04-19T11:24:20.860Z,27.44
2019-04-19T11:25:22.149Z,27.47
2019-04-19T11:26:21.135Z,27.44
2019-04-19T11:27:21.497Z,27.32
2019-04-19T11:28:21.419Z,27.53
2019-04-19T11:29:21.928Z,27.40
2019-04-19T11:30:21.696Z,27.50
2019-04-19T11:31:21.842Z,27.44
2019-04-19T11:32:22.021Z,27.61
2019-04-19T11:33:23.246Z,27.82
2019-04-19T11:34:22.905Z,28.15
2019-04-19T11:35:23.368Z,28.16
2019-04-19T11:36:23.628Z,28.25
2019-04-19T11:37:23.412Z,28.13
2019-04-19T11:38:23.018Z,28.22
2019-04-19T11:39:23.185Z,28.19
2019-04-19T11:40:23.190Z,28.35
2019-04-19T11:41:23.305Z,28.42
2019-04-19T11:42:23.437Z,28.43
2019-04-19T11:43:23.604Z,28.61
2019-04-19T11:44:26.481Z,28.62
2019-04-19T11:45:23.948Z,28.47
2019-04-19T11:46:25.151Z,28.53
2019-04-19T11:47:24.976Z,28.49
2019-04-19T11:48:24.706Z,28.42
2019-04-19T11:49:31.203Z,28.43
2019-04-19T11:50:25.156Z,28.34
2019-04-19T11:51:25.680Z,28.44
2019-04-19T11:52:25.981Z,28.49
2019-04-19T11:53:25.065Z,28.75
2019-04-19T11:54:26.263Z,28.75
2019-04-19T11:55:26.446Z,28.83
2019-04-19T11:56:29.739Z,28.83
2019-04-19T11:57:26.149Z,28.77
2019-04-19T11:58:26.432Z,28.66
2019-04-19T11:59:37.136Z,28.84
2019-04-19T12:00:27.301Z,28.75
2019-04-19T12:01:26.241Z,28.69
2019-04-19T12:02:27.444Z,28.72
2019-04-19T12:03:27.815Z,28.71
2019-04-19T12:04:28.064Z,28.53
2019-04-19T12:05:30.648Z,28.71
2019-04-19T12:06:26.981Z,28.57
2019-04-19T12:07:28.123Z,28.53
2019-04-19T12:08:28.709Z,28.72
2019-04-19T12:09:27.441Z,28.68
2019-04-19T12:10:30.638Z,28.81
2019-04-19T12:11:28.398Z,28.80
2019-04-19T12:12:27.883Z,28.79
2019-04-19T12:13:29.092Z,28.66
2019-04-19T12:14:29.556Z,28.50
2019-04-19T12:15:29.573Z,28.57
2019-04-19T12:16:28.776Z,28.65
2019-04-19T12:17:29.241Z,28.77
2019-04-19T12:18:28.743Z,28.72
2019-04-19T12:19:36.948Z,28.69
2019-04-19T12:20:29.038Z,28.66
2019-04-19T12:21:29.408Z,28.57
2019-04-19T12:22:29.321Z,28.64
2019-04-19T12:23:29.668Z,28.42
2019-04-19T12:24:30.782Z,28.07
2019-04-19T12:25:29.943Z,28.07
2019-04-19T12:26:29.914Z,28.10
2019-04-19T12:27:30.061Z,28.17
2019-04-19T12:28:30.211Z,28.16
2019-04-19T12:29:38.677Z,27.91
2019-04-19T12:30:31.524Z,27.87
2019-04-19T12:31:31.611Z,27.88
2019-04-19T12:32:30.789Z,27.87
2019-04-19T12:33:31.275Z,27.83
2019-04-19T12:34:31.074Z,27.83
2019-04-19T12:35:31.535Z,27.90
2019-04-19T12:36:31.372Z,27.79
2019-04-19T12:37:31.514Z,27.72
2019-04-19T12:38:33.182Z,27.68
2019-04-19T12:39:32.722Z,27.78
2019-04-19T12:40:31.975Z,27.83
2019-04-19T12:41:32.240Z,27.76
2019-04-19T12:42:33.728Z,27.79
2019-04-19T12:43:32.451Z,27.63
2019-04-19T12:44:33.269Z,27.72
2019-04-19T12:45:33.563Z,27.75
2019-04-19T12:46:32.918Z,27.79
2019-04-19T12:47:33.188Z,27.75
2019-04-19T12:48:33.181Z,27.63
2019-04-19T12:49:33.328Z,27.45
2019-04-19T12:50:36.967Z,27.45
2019-04-19T12:51:34.366Z,27.32
2019-04-19T12:52:33.767Z,27.38
2019-04-19T12:53:34.881Z,27.41
2019-04-19T12:54:34.165Z,27.40
2019-04-19T12:55:34.187Z,27.37
2019-04-19T12:56:34.393Z,27.40
2019-04-19T12:57:34.533Z,27.38
2019-04-19T12:58:35.802Z,27.35
2019-04-19T12:59:35.987Z,27.32
2019-04-19T13:00:36.119Z,27.15
2019-04-19T13:01:35.580Z,27.01
2019-04-19T13:02:35.804Z,27.00
2019-04-19T13:03:36.050Z,26.90
2019-04-19T13:04:36.214Z,26.98
2019-04-19T13:05:35.678Z,26.85
2019-04-19T13:06:35.864Z,26.83
2019-04-19T13:07:36.459Z,26.83
2019-04-19T13:08:36.980Z,26.85
2019-04-19T13:09:37.215Z,26.83
2019-04-19T13:10:36.385Z,26.70
2019-04-19T13:11:36.848Z,26.75
2019-04-19T13:12:37.186Z,26.63
2019-04-19T13:13:36.862Z,26.61
2019-04-19T13:14:37.675Z,26.71
2019-04-19T13:15:38.432Z,26.65
2019-04-19T13:16:37.274Z,26.78
2019-04-19T13:17:38.160Z,26.68
2019-04-19T13:18:38.375Z,26.67
2019-04-19T13:19:37.683Z,26.53
2019-04-19T13:20:39.162Z,26.51
2019-04-19T13:21:38.614Z,26.51
2019-04-19T13:22:38.747Z,26.57
2019-04-19T13:23:38.252Z,26.57
2019-04-19T13:24:38.469Z,26.60
2019-04-19T13:25:39.498Z,26.53